Fort Davis, TX

4:17 AM CST on December 22, 2014 (GMT -0600)
Elbow Canyon | Change Station
CLOSE
Current Station
Personal Weather Station
Location: Davis Mountains, TX
Elevation: 5990 ft
Nearby Weather Stations

Elev 5990 ft 30.69 °N, 104.08 °W | Updated 17 minutes ago

Partly Cloudy
Partly Cloudy
49.2 °F
Feels Like 49 °F
N
0.0
Wind Variable Wind from North
Gusts 0.0 mph

Today
High -- | Low -- °F
--% Chance of Precip.
Yesterday
High -- | Low -- °F
Precip. -- in
7:50 AM 5:59 PM
New Moon, 0% visible
Pressure 29.91 in
Visibility 10.0 miles
Clouds Clear
Windchill 49 °F
Dew Point 24 °F
Humidity 37%
Rainfall 0.00 in
Snow Depth Not available.
UV 0 out of 12
Pollen 8.80 out of 12
Air Quality Not available.
Flu Activity Not available.
METAR KMRF 220955Z AUTO 28013KT 10SM CLR 11/M04 A2991 RMK AO1

More Conditions Fewer Conditions

Pressure 29.91 in
Visibility 10.0 miles
Clouds Clear
Windchill 49 °F
Dew Point 24 °F
Humidity 37%
Rainfall 0.00 in
Snow Depth Not available.
UV 0 out of 12
Pollen 8.80 out of 12
Air Quality Not available.
Flu Activity Not available.
METAR KMRF 220955Z AUTO 28013KT 10SM CLR 11/M04 A2991 RMK AO1

More Conditions Fewer Conditions

10-Day Weather Forecast

Almanac

Astronomy

Dec. 22, 2014 Rise Set
Actual Time
Civil Twilight
Nautical Twilight
Astronomical Twilight
Moon
Length of Visible Light
Length of Day
Tomorrow will be .
, % of the Moon is Illuminated

Today's Extremes

State Highs State Lows

Community

WunderPhotos

Upload Photos

1,779,583 photos uploaded!

WunderBlogs® & News

Nearby

Air Quality

  Air Quality AQ Index Pollutant
Not available.

Snow Depth

Station Depth Elevation

Earthquake Activity

City Distance Mag. Time & Date
Minimum magnitude displayed is 2.5.

Coastal Water Temperatures

Place Temperature

Nearby Weather Stations